sensor_id;sensor_type;location;lat;lon;timestamp;P1;durP1;ratioP1;P2;durP2;ratioP2
41233;SDS011;26968;42.686;23.352;2023-04-02T00:01:02;3.58;;;1.10;;
41233;SDS011;26968;42.686;23.352;2023-04-02T00:04:01;2.80;;;1.00;;
41233;SDS011;26968;42.686;23.352;2023-04-02T00:08:58;3.90;;;1.08;;
41233;SDS011;26968;42.686;23.352;2023-04-02T00:11:47;1.75;;;1.10;;
41233;SDS011;26968;42.686;23.352;2023-04-02T00:14:15;4.47;;;0.80;;
41233;SDS011;26968;42.686;23.352;2023-04-02T00:16:53;0.93;;;0.70;;
41233;SDS011;26968;42.686;23.352;2023-04-02T00:19:24;1.33;;;0.80;;
41233;SDS011;26968;42.686;23.352;2023-04-02T00:21:51;0.95;;;0.70;;
41233;SDS011;26968;42.686;23.352;2023-04-02T00:24:18;2.33;;;0.63;;
41233;SDS011;26968;42.686;23.352;2023-04-02T00:26:46;1.02;;;0.80;;
41233;SDS011;26968;42.686;23.352;2023-04-02T00:29:15;2.72;;;0.77;;
41233;SDS011;26968;42.686;23.352;2023-04-02T00:31:46;2.28;;;0.80;;
41233;SDS011;26968;42.686;23.352;2023-04-02T00:37:33;1.83;;;0.98;;
41233;SDS011;26968;42.686;23.352;2023-04-02T00:40:45;3.65;;;0.77;;
41233;SDS011;26968;42.686;23.352;2023-04-02T00:42:57;1.33;;;0.65;;
41233;SDS011;26968;42.686;23.352;2023-04-02T00:47:49;3.25;;;2.08;;
41233;SDS011;26968;42.686;23.352;2023-04-02T00:50:19;6.38;;;2.63;;
41233;SDS011;26968;42.686;23.352;2023-04-02T00:52:51;5.40;;;3.22;;
41233;SDS011;26968;42.686;23.352;2023-04-02T00:55:22;6.03;;;3.20;;
41233;SDS011;26968;42.686;23.352;2023-04-02T00:57:51;4.43;;;2.80;;
41233;SDS011;26968;42.686;23.352;2023-04-02T01:00:26;6.20;;;2.72;;
41233;SDS011;26968;42.686;23.352;2023-04-02T01:05:58;4.15;;;2.75;;
41233;SDS011;26968;42.686;23.352;2023-04-02T01:16:56;8.05;;;3.45;;
41233;SDS011;26968;42.686;23.352;2023-04-02T01:22:00;6.25;;;2.60;;
41233;SDS011;26968;42.686;23.352;2023-04-02T01:24:33;8.32;;;3.30;;
41233;SDS011;26968;42.686;23.352;2023-04-02T01:27:03;9.00;;;2.97;;
41233;SDS011;26968;42.686;23.352;2023-04-02T01:29:43;5.22;;;3.30;;
41233;SDS011;26968;42.686;23.352;2023-04-02T01:32:16;6.13;;;4.15;;
41233;SDS011;26968;42.686;23.352;2023-04-02T01:34:45;6.07;;;3.80;;
41233;SDS011;26968;42.686;23.352;2023-04-02T01:45:25;4.28;;;2.80;;
41233;SDS011;26968;42.686;23.352;2023-04-02T01:47:52;7.68;;;2.40;;
41233;SDS011;26968;42.686;23.352;2023-04-02T01:52:44;5.28;;;2.53;;
41233;SDS011;26968;42.686;23.352;2023-04-02T01:55:13;3.35;;;1.90;;
41233;SDS011;26968;42.686;23.352;2023-04-02T01:57:42;3.90;;;2.17;;
41233;SDS011;26968;42.686;23.352;2023-04-02T02:00:13;4.97;;;2.60;;
41233;SDS011;26968;42.686;23.352;2023-04-02T02:02:40;11.13;;;2.70;;
41233;SDS011;26968;42.686;23.352;2023-04-02T02:05:14;6.47;;;2.22;;
41233;SDS011;26968;42.686;23.352;2023-04-02T02:07:42;4.47;;;2.05;;
41233;SDS011;26968;42.686;23.352;2023-04-02T02:10:15;3.80;;;2.15;;
41233;SDS011;26968;42.686;23.352;2023-04-02T02:12:46;2.70;;;1.98;;
41233;SDS011;26968;42.686;23.352;2023-04-02T02:15:17;5.15;;;2.38;;
41233;SDS011;26968;42.686;23.352;2023-04-02T02:17:45;5.78;;;2.55;;
41233;SDS011;26968;42.686;23.352;2023-04-02T02:20:11;4.90;;;2.13;;
41233;SDS011;26968;42.686;23.352;2023-04-02T02:22:45;6.75;;;2.08;;
41233;SDS011;26968;42.686;23.352;2023-04-02T02:25:16;6.28;;;2.25;;
41233;SDS011;26968;42.686;23.352;2023-04-02T02:39:03;6.40;;;2.35;;
41233;SDS011;26968;42.686;23.352;2023-04-02T02:44:27;3.67;;;2.25;;
41233;SDS011;26968;42.686;23.352;2023-04-02T02:49:30;5.53;;;2.72;;
41233;SDS011;26968;42.686;23.352;2023-04-02T02:54:31;9.52;;;3.67;;
41233;SDS011;26968;42.686;23.352;2023-04-02T02:57:00;7.05;;;3.15;;
41233;SDS011;26968;42.686;23.352;2023-04-02T02:59:28;4.53;;;3.28;;
41233;SDS011;26968;42.686;23.352;2023-04-02T03:01:55;9.57;;;4.22;;
41233;SDS011;26968;42.686;23.352;2023-04-02T03:04:21;11.55;;;4.65;;
41233;SDS011;26968;42.686;23.352;2023-04-02T03:06:51;7.07;;;4.03;;
41233;SDS011;26968;42.686;23.352;2023-04-02T03:09:20;10.05;;;4.15;;
41233;SDS011;26968;42.686;23.352;2023-04-02T03:17:56;8.73;;;4.00;;
41233;SDS011;26968;42.686;23.352;2023-04-02T03:20:36;6.70;;;3.85;;
41233;SDS011;26968;42.686;23.352;2023-04-02T03:28:57;7.60;;;3.53;;
41233;SDS011;26968;42.686;23.352;2023-04-02T03:31:36;10.35;;;3.72;;
41233;SDS011;26968;42.686;23.352;2023-04-02T03:37:25;8.32;;;4.75;;
41233;SDS011;26968;42.686;23.352;2023-04-02T03:40:00;17.35;;;5.22;;
41233;SDS011;26968;42.686;23.352;2023-04-02T03:42:40;7.75;;;4.60;;
41233;SDS011;26968;42.686;23.352;2023-04-02T03:45:30;8.63;;;5.57;;
41233;SDS011;26968;42.686;23.352;2023-04-02T03:48:04;11.23;;;4.93;;
41233;SDS011;26968;42.686;23.352;2023-04-02T03:53:28;11.85;;;6.45;;
41233;SDS011;26968;42.686;23.352;2023-04-02T03:55:56;13.38;;;6.90;;
41233;SDS011;26968;42.686;23.352;2023-04-02T03:58:40;9.68;;;5.43;;
41233;SDS011;26968;42.686;23.352;2023-04-02T04:01:25;12.52;;;5.45;;
41233;SDS011;26968;42.686;23.352;2023-04-02T04:03:56;9.50;;;5.93;;
41233;SDS011;26968;42.686;23.352;2023-04-02T04:06:29;12.07;;;5.45;;
41233;SDS011;26968;42.686;23.352;2023-04-02T04:09:04;9.65;;;5.38;;
41233;SDS011;26968;42.686;23.352;2023-04-02T04:11:37;8.18;;;5.68;;
41233;SDS011;26968;42.686;23.352;2023-04-02T04:14:11;12.00;;;5.18;;
41233;SDS011;26968;42.686;23.352;2023-04-02T04:19:19;11.90;;;6.22;;
41233;SDS011;26968;42.686;23.352;2023-04-02T04:21:46;8.88;;;4.90;;
41233;SDS011;26968;42.686;23.352;2023-04-02T04:24:24;10.73;;;5.22;;
41233;SDS011;26968;42.686;23.352;2023-04-02T04:29:44;10.05;;;5.22;;
41233;SDS011;26968;42.686;23.352;2023-04-02T04:34:51;16.10;;;5.43;;
41233;SDS011;26968;42.686;23.352;2023-04-02T04:37:23;9.32;;;5.38;;
41233;SDS011;26968;42.686;23.352;2023-04-02T04:42:32;12.65;;;5.53;;
41233;SDS011;26968;42.686;23.352;2023-04-02T04:47:48;18.00;;;6.15;;
41233;SDS011;26968;42.686;23.352;2023-04-02T04:53:05;12.57;;;5.93;;
41233;SDS011;26968;42.686;23.352;2023-04-02T04:55:38;15.40;;;5.88;;
41233;SDS011;26968;42.686;23.352;2023-04-02T04:58:12;13.95;;;5.78;;
41233;SDS011;26968;42.686;23.352;2023-04-02T05:04:00;14.98;;;7.07;;
41233;SDS011;26968;42.686;23.352;2023-04-02T05:06:40;12.13;;;5.50;;
41233;SDS011;26968;42.686;23.352;2023-04-02T05:09:13;14.02;;;7.18;;
41233;SDS011;26968;42.686;23.352;2023-04-02T05:11:50;15.85;;;7.75;;
41233;SDS011;26968;42.686;23.352;2023-04-02T05:17:24;14.63;;;6.78;;
41233;SDS011;26968;42.686;23.352;2023-04-02T05:20:03;9.60;;;5.82;;
41233;SDS011;26968;42.686;23.352;2023-04-02T05:22:47;12.88;;;6.22;;
41233;SDS011;26968;42.686;23.352;2023-04-02T05:30:37;15.13;;;7.45;;
41233;SDS011;26968;42.686;23.352;2023-04-02T05:35:55;9.90;;;5.90;;
41233;SDS011;26968;42.686;23.352;2023-04-02T05:38:39;7.28;;;4.43;;
41233;SDS011;26968;42.686;23.352;2023-04-02T05:41:14;7.07;;;4.78;;
41233;SDS011;26968;42.686;23.352;2023-04-02T05:44:20;8.38;;;4.30;;
41233;SDS011;26968;42.686;23.352;2023-04-02T05:46:56;7.10;;;3.88;;
41233;SDS011;26968;42.686;23.352;2023-04-02T05:49:29;11.20;;;5.28;;
41233;SDS011;26968;42.686;23.352;2023-04-02T05:52:05;9.40;;;4.90;;
41233;SDS011;26968;42.686;23.352;2023-04-02T05:54:47;8.82;;;4.88;;
41233;SDS011;26968;42.686;23.352;2023-04-02T05:57:24;15.73;;;6.03;;
41233;SDS011;26968;42.686;23.352;2023-04-02T05:59:57;13.65;;;4.78;;
41233;SDS011;26968;42.686;23.352;2023-04-02T06:05:10;9.13;;;5.38;;
41233;SDS011;26968;42.686;23.352;2023-04-02T06:13:43;9.38;;;4.57;;
41233;SDS011;26968;42.686;23.352;2023-04-02T06:16:12;10.70;;;4.40;;
41233;SDS011;26968;42.686;23.352;2023-04-02T06:18:40;9.00;;;4.67;;
41233;SDS011;26968;42.686;23.352;2023-04-02T06:21:07;8.98;;;3.70;;
41233;SDS011;26968;42.686;23.352;2023-04-02T06:28:59;8.27;;;4.18;;
41233;SDS011;26968;42.686;23.352;2023-04-02T06:34:04;5.68;;;3.17;;
41233;SDS011;26968;42.686;23.352;2023-04-02T06:36:31;6.43;;;3.75;;
41233;SDS011;26968;42.686;23.352;2023-04-02T06:38:58;9.38;;;4.20;;
41233;SDS011;26968;42.686;23.352;2023-04-02T06:41:30;7.15;;;3.33;;
41233;SDS011;26968;42.686;23.352;2023-04-02T06:44:00;10.88;;;3.55;;
41233;SDS011;26968;42.686;23.352;2023-04-02T06:46:28;9.95;;;3.70;;
41233;SDS011;26968;42.686;23.352;2023-04-02T06:49:01;8.73;;;4.18;;
41233;SDS011;26968;42.686;23.352;2023-04-02T06:51:42;9.68;;;4.63;;
41233;SDS011;26968;42.686;23.352;2023-04-02T06:54:16;8.65;;;3.80;;
41233;SDS011;26968;42.686;23.352;2023-04-02T06:56:46;6.88;;;3.38;;
41233;SDS011;26968;42.686;23.352;2023-04-02T06:59:16;6.43;;;3.53;;
41233;SDS011;26968;42.686;23.352;2023-04-02T07:01:46;10.40;;;3.83;;
41233;SDS011;26968;42.686;23.352;2023-04-02T07:04:15;8.32;;;3.65;;
41233;SDS011;26968;42.686;23.352;2023-04-02T07:06:42;15.48;;;5.10;;
41233;SDS011;26968;42.686;23.352;2023-04-02T07:09:08;8.43;;;3.83;;
41233;SDS011;26968;42.686;23.352;2023-04-02T07:11:33;11.38;;;3.90;;
41233;SDS011;26968;42.686;23.352;2023-04-02T07:13:59;8.15;;;3.75;;
41233;SDS011;26968;42.686;23.352;2023-04-02T07:16:25;8.80;;;4.75;;
41233;SDS011;26968;42.686;23.352;2023-04-02T07:18:53;10.85;;;4.63;;
41233;SDS011;26968;42.686;23.352;2023-04-02T07:21:20;11.75;;;3.92;;
41233;SDS011;26968;42.686;23.352;2023-04-02T07:23:46;9.02;;;3.70;;
41233;SDS011;26968;42.686;23.352;2023-04-02T07:26:13;17.25;;;4.82;;
41233;SDS011;26968;42.686;23.352;2023-04-02T07:28:44;9.00;;;4.55;;
41233;SDS011;26968;42.686;23.352;2023-04-02T07:31:17;7.03;;;3.72;;
41233;SDS011;26968;42.686;23.352;2023-04-02T07:33:48;9.70;;;4.25;;
41233;SDS011;26968;42.686;23.352;2023-04-02T07:36:18;9.70;;;4.30;;
41233;SDS011;26968;42.686;23.352;2023-04-02T07:38:46;5.90;;;2.20;;
41233;SDS011;26968;42.686;23.352;2023-04-02T07:41:12;8.15;;;2.30;;
41233;SDS011;26968;42.686;23.352;2023-04-02T07:43:38;8.25;;;1.88;;
41233;SDS011;26968;42.686;23.352;2023-04-02T07:46:04;6.85;;;1.98;;
41233;SDS011;26968;42.686;23.352;2023-04-02T07:48:31;4.25;;;1.63;;
41233;SDS011;26968;42.686;23.352;2023-04-02T07:50:57;6.00;;;2.20;;
41233;SDS011;26968;42.686;23.352;2023-04-02T07:53:33;5.18;;;1.80;;
41233;SDS011;26968;42.686;23.352;2023-04-02T07:56:00;4.50;;;1.60;;
41233;SDS011;26968;42.686;23.352;2023-04-02T07:58:28;9.07;;;2.28;;
41233;SDS011;26968;42.686;23.352;2023-04-02T08:00:55;1.60;;;1.13;;
41233;SDS011;26968;42.686;23.352;2023-04-02T08:03:20;3.53;;;1.42;;
41233;SDS011;26968;42.686;23.352;2023-04-02T08:05:50;1.98;;;0.93;;
41233;SDS011;26968;42.686;23.352;2023-04-02T08:08:18;3.45;;;1.20;;
41233;SDS011;26968;42.686;23.352;2023-04-02T08:10:45;5.78;;;1.15;;
41233;SDS011;26968;42.686;23.352;2023-04-02T08:13:11;4.20;;;1.10;;
41233;SDS011;26968;42.686;23.352;2023-04-02T08:15:37;3.58;;;1.00;;
41233;SDS011;26968;42.686;23.352;2023-04-02T08:18:03;2.20;;;0.95;;
41233;SDS011;26968;42.686;23.352;2023-04-02T08:20:28;4.38;;;1.08;;
41233;SDS011;26968;42.686;23.352;2023-04-02T08:22:53;1.13;;;0.80;;
41233;SDS011;26968;42.686;23.352;2023-04-02T08:25:20;2.42;;;0.82;;
41233;SDS011;26968;42.686;23.352;2023-04-02T08:27:46;3.80;;;1.00;;
41233;SDS011;26968;42.686;23.352;2023-04-02T08:30:12;1.67;;;1.10;;
41233;SDS011;26968;42.686;23.352;2023-04-02T08:32:38;2.28;;;0.90;;
41233;SDS011;26968;42.686;23.352;2023-04-02T08:35:05;2.30;;;1.20;;
41233;SDS011;26968;42.686;23.352;2023-04-02T08:37:31;1.00;;;0.90;;
41233;SDS011;26968;42.686;23.352;2023-04-02T08:39:57;1.55;;;0.98;;
41233;SDS011;26968;42.686;23.352;2023-04-02T08:47:34;6.40;;;1.10;;
41233;SDS011;26968;42.686;23.352;2023-04-02T08:50:15;1.25;;;0.65;;
41233;SDS011;26968;42.686;23.352;2023-04-02T08:52:54;2.00;;;1.00;;
41233;SDS011;26968;42.686;23.352;2023-04-02T09:01:10;2.05;;;1.00;;
41233;SDS011;26968;42.686;23.352;2023-04-02T09:03:44;2.20;;;1.05;;
41233;SDS011;26968;42.686;23.352;2023-04-02T09:06:14;3.10;;;1.35;;
41233;SDS011;26968;42.686;23.352;2023-04-02T09:08:43;1.25;;;0.90;;
41233;SDS011;26968;42.686;23.352;2023-04-02T09:13:46;1.77;;;0.80;;
41233;SDS011;26968;42.686;23.352;2023-04-02T09:16:18;2.75;;;1.02;;
41233;SDS011;26968;42.686;23.352;2023-04-02T09:18:47;5.80;;;1.40;;
41233;SDS011;26968;42.686;23.352;2023-04-02T09:21:21;6.68;;;1.27;;
41233;SDS011;26968;42.686;23.352;2023-04-02T09:24:10;2.60;;;0.95;;
41233;SDS011;26968;42.686;23.352;2023-04-02T09:26:37;2.75;;;0.88;;
41233;SDS011;26968;42.686;23.352;2023-04-02T09:32:05;2.88;;;1.30;;
41233;SDS011;26968;42.686;23.352;2023-04-02T09:35:12;1.55;;;0.90;;
41233;SDS011;26968;42.686;23.352;2023-04-02T09:37:41;1.85;;;0.80;;
41233;SDS011;26968;42.686;23.352;2023-04-02T09:46:00;1.33;;;0.85;;
41233;SDS011;26968;42.686;23.352;2023-04-02T09:48:44;2.75;;;1.02;;
41233;SDS011;26968;42.686;23.352;2023-04-02T09:51:18;3.22;;;1.00;;
41233;SDS011;26968;42.686;23.352;2023-04-02T09:53:46;3.95;;;1.45;;
41233;SDS011;26968;42.686;23.352;2023-04-02T09:56:36;3.88;;;0.98;;
41233;SDS011;26968;42.686;23.352;2023-04-02T10:01:38;2.78;;;0.90;;
41233;SDS011;26968;42.686;23.352;2023-04-02T10:04:34;2.35;;;0.80;;
41233;SDS011;26968;42.686;23.352;2023-04-02T10:07:09;2.97;;;0.90;;
41233;SDS011;26968;42.686;23.352;2023-04-02T10:10:21;1.50;;;1.02;;
41233;SDS011;26968;42.686;23.352;2023-04-02T10:12:53;8.25;;;1.92;;
41233;SDS011;26968;42.686;23.352;2023-04-02T10:21:18;3.80;;;1.42;;
41233;SDS011;26968;42.686;23.352;2023-04-02T10:23:49;1.70;;;1.17;;
41233;SDS011;26968;42.686;23.352;2023-04-02T10:28:59;2.15;;;0.82;;
41233;SDS011;26968;42.686;23.352;2023-04-02T10:34:34;1.63;;;0.88;;
41233;SDS011;26968;42.686;23.352;2023-04-02T10:37:11;1.27;;;0.80;;
41233;SDS011;26968;42.686;23.352;2023-04-02T10:39:50;1.98;;;0.82;;
41233;SDS011;26968;42.686;23.352;2023-04-02T10:42:27;1.13;;;0.70;;
41233;SDS011;26968;42.686;23.352;2023-04-02T10:47:50;2.28;;;0.90;;
41233;SDS011;26968;42.686;23.352;2023-04-02T10:50:26;7.40;;;2.60;;
41233;SDS011;26968;42.686;23.352;2023-04-02T10:55:27;2.38;;;0.95;;
41233;SDS011;26968;42.686;23.352;2023-04-02T10:57:56;2.40;;;0.80;;
41233;SDS011;26968;42.686;23.352;2023-04-02T11:00:33;1.80;;;0.68;;
41233;SDS011;26968;42.686;23.352;2023-04-02T11:03:13;2.33;;;0.90;;
41233;SDS011;26968;42.686;23.352;2023-04-02T11:05:51;2.25;;;0.73;;
41233;SDS011;26968;42.686;23.352;2023-04-02T11:11:15;1.55;;;0.70;;
41233;SDS011;26968;42.686;23.352;2023-04-02T11:16:21;0.95;;;0.75;;
41233;SDS011;26968;42.686;23.352;2023-04-02T11:21:38;4.47;;;1.10;;
41233;SDS011;26968;42.686;23.352;2023-04-02T11:24:53;1.92;;;0.90;;
41233;SDS011;26968;42.686;23.352;2023-04-02T11:29:46;1.88;;;0.70;;
41233;SDS011;26968;42.686;23.352;2023-04-02T11:50:32;1.00;;;0.73;;
41233;SDS011;26968;42.686;23.352;2023-04-02T11:53:03;5.30;;;0.68;;
41233;SDS011;26968;42.686;23.352;2023-04-02T11:55:45;0.80;;;0.60;;
41233;SDS011;26968;42.686;23.352;2023-04-02T12:11:42;2.25;;;1.02;;
41233;SDS011;26968;42.686;23.352;2023-04-02T12:16:55;1.25;;;0.85;;
41233;SDS011;26968;42.686;23.352;2023-04-02T12:19:22;1.33;;;0.70;;
41233;SDS011;26968;42.686;23.352;2023-04-02T12:21:49;1.10;;;1.00;;
41233;SDS011;26968;42.686;23.352;2023-04-02T12:24:18;2.10;;;0.82;;
41233;SDS011;26968;42.686;23.352;2023-04-02T12:26:46;1.42;;;1.13;;
41233;SDS011;26968;42.686;23.352;2023-04-02T12:29:13;3.13;;;1.10;;
41233;SDS011;26968;42.686;23.352;2023-04-02T12:31:53;2.88;;;0.70;;
41233;SDS011;26968;42.686;23.352;2023-04-02T12:34:21;1.90;;;0.63;;
41233;SDS011;26968;42.686;23.352;2023-04-02T12:37:02;1.08;;;0.80;;
41233;SDS011;26968;42.686;23.352;2023-04-02T12:39:30;3.15;;;0.68;;
41233;SDS011;26968;42.686;23.352;2023-04-02T12:41:57;0.73;;;0.70;;
41233;SDS011;26968;42.686;23.352;2023-04-02T12:44:26;3.13;;;0.60;;
41233;SDS011;26968;42.686;23.352;2023-04-02T12:46:54;1.90;;;0.80;;
41233;SDS011;26968;42.686;23.352;2023-04-02T12:49:41;3.38;;;1.70;;
41233;SDS011;26968;42.686;23.352;2023-04-02T12:52:08;4.25;;;0.90;;
41233;SDS011;26968;42.686;23.352;2023-04-02T12:54:43;0.85;;;0.57;;
41233;SDS011;26968;42.686;23.352;2023-04-02T12:59:50;1.50;;;0.85;;
41233;SDS011;26968;42.686;23.352;2023-04-02T13:04:48;0.80;;;0.60;;
41233;SDS011;26968;42.686;23.352;2023-04-02T13:07:20;2.35;;;0.70;;
41233;SDS011;26968;42.686;23.352;2023-04-02T13:09:49;2.10;;;0.85;;
41233;SDS011;26968;42.686;23.352;2023-04-02T13:12:24;8.63;;;1.42;;
41233;SDS011;26968;42.686;23.352;2023-04-02T13:14:58;1.38;;;0.98;;
41233;SDS011;26968;42.686;23.352;2023-04-02T13:25:57;1.70;;;0.90;;
41233;SDS011;26968;42.686;23.352;2023-04-02T13:28:38;1.70;;;0.80;;
41233;SDS011;26968;42.686;23.352;2023-04-02T13:31:04;2.60;;;0.60;;
41233;SDS011;26968;42.686;23.352;2023-04-02T13:33:30;2.78;;;0.77;;
41233;SDS011;26968;42.686;23.352;2023-04-02T13:35:55;1.98;;;1.00;;
41233;SDS011;26968;42.686;23.352;2023-04-02T13:38:21;0.73;;;0.60;;
41233;SDS011;26968;42.686;23.352;2023-04-02T13:40:46;1.38;;;0.80;;
41233;SDS011;26968;42.686;23.352;2023-04-02T13:43:16;3.08;;;1.10;;
41233;SDS011;26968;42.686;23.352;2023-04-02T13:45:45;2.50;;;0.80;;
41233;SDS011;26968;42.686;23.352;2023-04-02T13:48:14;1.13;;;0.75;;
41233;SDS011;26968;42.686;23.352;2023-04-02T13:50:40;4.63;;;1.20;;
41233;SDS011;26968;42.686;23.352;2023-04-02T13:53:07;1.30;;;0.60;;
41233;SDS011;26968;42.686;23.352;2023-04-02T13:55:37;4.15;;;0.88;;
41233;SDS011;26968;42.686;23.352;2023-04-02T13:58:06;0.93;;;0.68;;
41233;SDS011;26968;42.686;23.352;2023-04-02T14:00:32;1.52;;;1.00;;
41233;SDS011;26968;42.686;23.352;2023-04-02T14:03:09;1.48;;;0.70;;
41233;SDS011;26968;42.686;23.352;2023-04-02T14:05:47;5.25;;;1.00;;
41233;SDS011;26968;42.686;23.352;2023-04-02T14:24:21;2.97;;;0.98;;
41233;SDS011;26968;42.686;23.352;2023-04-02T14:32:20;2.03;;;0.80;;
41233;SDS011;26968;42.686;23.352;2023-04-02T14:35:17;1.83;;;0.80;;
41233;SDS011;26968;42.686;23.352;2023-04-02T14:41:13;1.00;;;0.70;;
41233;SDS011;26968;42.686;23.352;2023-04-02T14:44:02;5.97;;;1.50;;
41233;SDS011;26968;42.686;23.352;2023-04-02T14:46:30;1.70;;;1.08;;
41233;SDS011;26968;42.686;23.352;2023-04-02T14:51:38;0.95;;;0.85;;
41233;SDS011;26968;42.686;23.352;2023-04-02T14:54:13;2.25;;;0.98;;
41233;SDS011;26968;42.686;23.352;2023-04-02T14:56:45;2.40;;;1.00;;
41233;SDS011;26968;42.686;23.352;2023-04-02T15:02:22;1.55;;;0.70;;
41233;SDS011;26968;42.686;23.352;2023-04-02T15:05:25;1.85;;;0.80;;
41233;SDS011;26968;42.686;23.352;2023-04-02T15:07:53;2.63;;;0.80;;
41233;SDS011;26968;42.686;23.352;2023-04-02T15:13:17;1.55;;;0.93;;
41233;SDS011;26968;42.686;23.352;2023-04-02T15:15:57;5.03;;;1.02;;
41233;SDS011;26968;42.686;23.352;2023-04-02T15:18:50;4.75;;;0.90;;
41233;SDS011;26968;42.686;23.352;2023-04-02T15:26:18;1.70;;;1.05;;
41233;SDS011;26968;42.686;23.352;2023-04-02T15:31:48;3.30;;;1.48;;
41233;SDS011;26968;42.686;23.352;2023-04-02T15:34:21;2.33;;;1.00;;
41233;SDS011;26968;42.686;23.352;2023-04-02T15:51:42;3.15;;;0.90;;
41233;SDS011;26968;42.686;23.352;2023-04-02T15:59:42;1.98;;;0.80;;
41233;SDS011;26968;42.686;23.352;2023-04-02T16:05:03;1.17;;;0.95;;
41233;SDS011;26968;42.686;23.352;2023-04-02T16:10:23;7.65;;;2.22;;
41233;SDS011;26968;42.686;23.352;2023-04-02T16:13:12;3.13;;;1.17;;
41233;SDS011;26968;42.686;23.352;2023-04-02T16:21:32;3.15;;;1.20;;
41233;SDS011;26968;42.686;23.352;2023-04-02T16:24:05;1.67;;;1.05;;
41233;SDS011;26968;42.686;23.352;2023-04-02T16:26:40;1.35;;;0.85;;
41233;SDS011;26968;42.686;23.352;2023-04-02T16:40:38;4.47;;;1.67;;
41233;SDS011;26968;42.686;23.352;2023-04-02T16:43:14;8.57;;;2.70;;
41233;SDS011;26968;42.686;23.352;2023-04-02T16:48:31;5.82;;;2.08;;
41233;SDS011;26968;42.686;23.352;2023-04-02T17:05:52;8.05;;;3.03;;
41233;SDS011;26968;42.686;23.352;2023-04-02T17:08:36;5.45;;;2.15;;
41233;SDS011;26968;42.686;23.352;2023-04-02T17:11:07;4.97;;;2.78;;
41233;SDS011;26968;42.686;23.352;2023-04-02T17:13:41;6.80;;;1.90;;
41233;SDS011;26968;42.686;23.352;2023-04-02T17:18:45;7.60;;;2.95;;
41233;SDS011;26968;42.686;23.352;2023-04-02T17:21:14;8.32;;;2.90;;
41233;SDS011;26968;42.686;23.352;2023-04-02T17:26:41;8.57;;;2.83;;
41233;SDS011;26968;42.686;23.352;2023-04-02T17:29:16;5.55;;;3.22;;
41233;SDS011;26968;42.686;23.352;2023-04-02T17:31:54;9.27;;;3.20;;
41233;SDS011;26968;42.686;23.352;2023-04-02T17:34:23;8.35;;;3.35;;
41233;SDS011;26968;42.686;23.352;2023-04-02T17:37:05;10.15;;;3.03;;
41233;SDS011;26968;42.686;23.352;2023-04-02T17:40:00;7.68;;;3.20;;
41233;SDS011;26968;42.686;23.352;2023-04-02T17:48:00;7.72;;;3.38;;
41233;SDS011;26968;42.686;23.352;2023-04-02T17:50:35;10.35;;;3.35;;
41233;SDS011;26968;42.686;23.352;2023-04-02T18:01:26;7.55;;;3.97;;
41233;SDS011;26968;42.686;23.352;2023-04-02T18:14:54;16.90;;;4.05;;
41233;SDS011;26968;42.686;23.352;2023-04-02T18:17:29;12.77;;;3.92;;
41233;SDS011;26968;42.686;23.352;2023-04-02T18:20:14;13.68;;;3.72;;
41233;SDS011;26968;42.686;23.352;2023-04-02T18:28:32;13.60;;;4.65;;
41233;SDS011;26968;42.686;23.352;2023-04-02T18:34:01;10.90;;;4.65;;
41233;SDS011;26968;42.686;23.352;2023-04-02T18:39:32;13.35;;;5.35;;
41233;SDS011;26968;42.686;23.352;2023-04-02T18:42:18;17.83;;;4.35;;
41233;SDS011;26968;42.686;23.352;2023-04-02T18:50:46;8.32;;;3.97;;
41233;SDS011;26968;42.686;23.352;2023-04-02T18:53:13;12.45;;;4.90;;
41233;SDS011;26968;42.686;23.352;2023-04-02T18:55:45;19.88;;;4.95;;
41233;SDS011;26968;42.686;23.352;2023-04-02T18:58:17;16.27;;;4.75;;
41233;SDS011;26968;42.686;23.352;2023-04-02T19:00:52;6.93;;;4.35;;
41233;SDS011;26968;42.686;23.352;2023-04-02T19:04:01;13.93;;;4.40;;
41233;SDS011;26968;42.686;23.352;2023-04-02T19:06:28;12.30;;;4.28;;
41233;SDS011;26968;42.686;23.352;2023-04-02T19:09:26;11.32;;;4.78;;
41233;SDS011;26968;42.686;23.352;2023-04-02T19:11:56;15.10;;;4.85;;
41233;SDS011;26968;42.686;23.352;2023-04-02T19:14:21;12.55;;;4.38;;
41233;SDS011;26968;42.686;23.352;2023-04-02T19:16:54;10.00;;;4.57;;
41233;SDS011;26968;42.686;23.352;2023-04-02T19:19:56;20.88;;;4.60;;
41233;SDS011;26968;42.686;23.352;2023-04-02T19:28:32;8.15;;;3.45;;
41233;SDS011;26968;42.686;23.352;2023-04-02T19:41:41;15.00;;;4.32;;
41233;SDS011;26968;42.686;23.352;2023-04-02T19:44:12;10.63;;;4.45;;
41233;SDS011;26968;42.686;23.352;2023-04-02T19:46:39;10.18;;;3.53;;
41233;SDS011;26968;42.686;23.352;2023-04-02T19:49:15;15.55;;;5.20;;
41233;SDS011;26968;42.686;23.352;2023-04-02T19:51:47;13.85;;;4.05;;
41233;SDS011;26968;42.686;23.352;2023-04-02T19:54:13;12.52;;;3.78;;
41233;SDS011;26968;42.686;23.352;2023-04-02T19:56:39;11.35;;;3.53;;
41233;SDS011;26968;42.686;23.352;2023-04-02T19:59:06;7.15;;;2.95;;
41233;SDS011;26968;42.686;23.352;2023-04-02T20:01:33;8.40;;;4.20;;
41233;SDS011;26968;42.686;23.352;2023-04-02T20:03:58;10.30;;;3.65;;
41233;SDS011;26968;42.686;23.352;2023-04-02T20:06:24;12.70;;;3.63;;
41233;SDS011;26968;42.686;23.352;2023-04-02T20:08:50;10.25;;;3.58;;
41233;SDS011;26968;42.686;23.352;2023-04-02T20:11:15;10.13;;;3.58;;
41233;SDS011;26968;42.686;23.352;2023-04-02T20:13:41;9.88;;;4.38;;
41233;SDS011;26968;42.686;23.352;2023-04-02T20:16:06;11.07;;;3.95;;
41233;SDS011;26968;42.686;23.352;2023-04-02T20:18:32;11.23;;;4.35;;
41233;SDS011;26968;42.686;23.352;2023-04-02T20:20:57;10.50;;;4.07;;
41233;SDS011;26968;42.686;23.352;2023-04-02T20:23:27;13.52;;;3.92;;
41233;SDS011;26968;42.686;23.352;2023-04-02T20:25:55;14.93;;;4.93;;
41233;SDS011;26968;42.686;23.352;2023-04-02T20:28:21;8.60;;;3.97;;
41233;SDS011;26968;42.686;23.352;2023-04-02T20:30:48;11.85;;;4.85;;
41233;SDS011;26968;42.686;23.352;2023-04-02T20:33:18;9.82;;;4.55;;
41233;SDS011;26968;42.686;23.352;2023-04-02T20:35:46;18.60;;;4.47;;
41233;SDS011;26968;42.686;23.352;2023-04-02T20:38:13;13.68;;;4.70;;
41233;SDS011;26968;42.686;23.352;2023-04-02T20:40:38;16.33;;;5.05;;
41233;SDS011;26968;42.686;23.352;2023-04-02T20:43:05;11.23;;;4.40;;
41233;SDS011;26968;42.686;23.352;2023-04-02T20:45:31;15.95;;;4.38;;
41233;SDS011;26968;42.686;23.352;2023-04-02T20:47:57;15.60;;;4.72;;
41233;SDS011;26968;42.686;23.352;2023-04-02T20:50:22;12.00;;;5.60;;
41233;SDS011;26968;42.686;23.352;2023-04-02T20:52:48;16.48;;;5.28;;
41233;SDS011;26968;42.686;23.352;2023-04-02T20:55:14;14.40;;;5.43;;
41233;SDS011;26968;42.686;23.352;2023-04-02T20:57:40;11.65;;;5.22;;
41233;SDS011;26968;42.686;23.352;2023-04-02T21:00:06;18.02;;;5.65;;
41233;SDS011;26968;42.686;23.352;2023-04-02T21:02:32;14.35;;;5.90;;
41233;SDS011;26968;42.686;23.352;2023-04-02T21:04:58;18.77;;;5.75;;
41233;SDS011;26968;42.686;23.352;2023-04-02T21:07:24;12.23;;;5.13;;
41233;SDS011;26968;42.686;23.352;2023-04-02T21:09:50;22.15;;;6.18;;
41233;SDS011;26968;42.686;23.352;2023-04-02T21:12:17;18.58;;;6.20;;
41233;SDS011;26968;42.686;23.352;2023-04-02T21:14:43;17.75;;;5.53;;
41233;SDS011;26968;42.686;23.352;2023-04-02T21:17:09;19.67;;;6.28;;
41233;SDS011;26968;42.686;23.352;2023-04-02T21:19:34;15.23;;;5.68;;
41233;SDS011;26968;42.686;23.352;2023-04-02T21:22:00;12.82;;;5.72;;
41233;SDS011;26968;42.686;23.352;2023-04-02T21:24:27;12.57;;;5.10;;